Time;durP1;ratioP1;P1;durP2;ratioP2;P2;SDS_P1;SDS_P2;PMS_P1;PMS_P2;Temp;Humidity;BMP_temperature;BMP_pressure;BME280_temperature;BME280_humidity;BME280_pressure;Samples;Min_cycle;Max_cycle;Signal;HPM_P1;HPM_P2
2023/10/07 00:02:12;;;;;;;;;;;;;;;;;;5098236;28;19908;-75
2023/10/07 00:04:38;;;;;;;;;;;;;;;;;;5096956;28;19915;-75
2023/10/07 00:07:10;;;;;;;;;;;;;;;;;;5096504;28;19939;-75
2023/10/07 00:09:36;;;;;;;;;;;;;;;;;;5096890;28;19916;-75
2023/10/07 00:12:02;;;;;;;;;;;;;;;;;;5096741;28;19916;-74
2023/10/07 00:14:30;;;;;;;;;;;;;;;;;;5096264;28;19931;-75
2023/10/07 00:16:57;;;;;;;;;;;;;;;;;;5096673;28;19912;-75
2023/10/07 00:19:23;;;;;;;;;;;;;;;;;;5096664;28;19948;-74
2023/10/07 00:22:08;;;;;;;;;;;;;;;;;;5096227;28;20319;-74
2023/10/07 00:24:40;;;;;;;;;;;;;;;;;;5096786;28;19914;-74
2023/10/07 00:27:13;;;;;;;;;;;;;;;;;;5096284;28;19912;-75
2023/10/07 00:29:54;;;;;;;;;;;;;;;;;;5097063;28;19912;-74
2023/10/07 00:32:24;;;;;;;;;;;;;;;;;;5096722;28;20347;-74
2023/10/07 00:34:50;;;;;;;;;;;;;;;;;;5096333;28;19940;-74
2023/10/07 00:37:18;;;;;;;;;;;;;;;;;;5096536;28;20380;-74
2023/10/07 00:39:46;;;;;;;;;;;;;;;;;;5096162;28;19912;-75
2023/10/07 00:42:12;;;;;;;;;;;;;;;;;;5095755;28;20368;-75
2023/10/07 00:44:39;;;;;;;;;;;;;;;;;;5096091;28;19908;-75
2023/10/07 00:49:39;;;;;;;;;;;;;;;;;;5095564;28;19920;-75
2023/10/07 00:52:05;;;;;;;;;;;;;;;;;;5096160;28;19912;-75
2023/10/07 00:54:44;;;;;;;;;;;;;;;;;;5095905;28;19982;-75
2023/10/07 00:57:11;;;;;;;;;;;;;;;;;;5095497;28;19908;-74
2023/10/07 00:59:40;;;;;;;;;;;;;;;;;;5095734;28;19908;-75
2023/10/07 01:02:06;;;;;;;;;;;;;;;;;;5095375;28;20291;-75
2023/10/07 01:04:40;;;;;;;;;;;;;;;;;;5095636;28;19912;-75
2023/10/07 01:07:06;;;;;;;;;;;;;;;;;;5095579;28;20334;-75
2023/10/07 01:09:32;;;;;;;;;;;;;;;;;;5076882;28;19912;-75
2023/10/07 01:11:58;;;;;;;;;;;;;;;;;;5095725;28;19915;-75
2023/10/07 01:14:27;;;;;;;;;;;;;;;;;;5094885;28;19908;-75
2023/10/07 01:16:53;;;;;;;;;;;;;;;;;;5094947;28;19918;-75
2023/10/07 01:19:19;;;;;;;;;;;;;;;;;;5095519;28;19995;-75
2023/10/07 01:27:16;;;;;;;;;;;;;;;;;;5095271;28;19931;-75
2023/10/07 01:29:42;;;;;;;;;;;;;;;;;;5095210;28;19920;-75
2023/10/07 01:32:16;;;;;;;;;;;;;;;;;;5076488;28;20247;-74
2023/10/07 01:34:47;;;;;;;;;;;;;;;;;;5095117;28;19908;-76
2023/10/07 01:37:15;;;;;;;;;;;;;;;;;;5094854;28;19991;-76
2023/10/07 01:39:41;;;;;;;;;;;;;;;;;;5076817;28;19916;-75
2023/10/07 01:42:08;;;;;;;;;;;;;;;;;;5095227;28;20360;-75
2023/10/07 01:44:38;;;;;;;;;;;;;;;;;;5094411;28;20403;-75
2023/10/07 01:47:04;;;;;;;;;;;;;;;;;;5076696;28;19909;-74
2023/10/07 01:49:30;;;;;;;;;;;;;;;;;;5076335;28;19927;-75
2023/10/07 01:51:56;;;;;;;;;;;;;;;;;;5094356;28;19942;-76
2023/10/07 01:54:24;;;;;;;;;;;;;;;;;;5076607;28;19912;-75
2023/10/07 01:56:53;;;;;;;;;;;;;;;;;;5094629;28;19977;-75
2023/10/07 01:59:19;;;;;;;;;;;;;;;;;;5094288;28;19916;-75
2023/10/07 02:01:50;;;;;;;;;;;;;;;;;;5076479;28;19912;-75
2023/10/07 02:04:18;;;;;;;;;;;;;;;;;;5094685;28;19908;-75
2023/10/07 02:06:54;;;;;;;;;;;;;;;;;;5094135;28;20354;-76
2023/10/07 02:09:26;;;;;;;;;;;;;;;;;;5094455;28;19916;-75
2023/10/07 02:11:52;;;;;;;;;;;;;;;;;;5094421;28;19912;-75
2023/10/07 02:14:23;;;;;;;;;;;;;;;;;;5093996;28;20020;-75
2023/10/07 02:16:49;;;;;;;;;;;;;;;;;;5094970;28;19912;-76
2023/10/07 02:19:26;;;;;;;;;;;;;;;;;;5094470;28;19915;-76
2023/10/07 02:21:52;;;;;;;;;;;;;;;;;;5094558;28;19912;-75
2023/10/07 02:24:21;;;;;;;;;;;;;;;;;;5094025;28;20283;-75
2023/10/07 02:26:53;;;;;;;;;;;;;;;;;;5093877;28;19908;-75
2023/10/07 02:29:21;;;;;;;;;;;;;;;;;;5094248;28;19983;-76
2023/10/07 02:31:50;;;;;;;;;;;;;;;;;;5094245;28;19915;-75
2023/10/07 02:34:28;;;;;;;;;;;;;;;;;;5093793;28;19908;-75
2023/10/07 02:37:03;;;;;;;;;;;;;;;;;;5094298;28;20257;-75
2023/10/07 02:39:45;;;;;;;;;;;;;;;;;;5094406;28;20280;-76
2023/10/07 02:42:11;;;;;;;;;;;;;;;;;;5093796;28;19909;-74
2023/10/07 02:44:38;;;;;;;;;;;;;;;;;;5075893;28;19931;-75
2023/10/07 02:47:11;;;;;;;;;;;;;;;;;;5093995;28;19908;-76
2023/10/07 02:49:39;;;;;;;;;;;;;;;;;;5075333;28;20349;-75
2023/10/07 02:52:05;;;;;;;;;;;;;;;;;;5093942;28;20356;-74
2023/10/07 02:54:41;;;;;;;;;;;;;;;;;;5075519;28;19947;-75
2023/10/07 02:57:08;;;;;;;;;;;;;;;;;;5093921;28;19908;-75
2023/10/07 02:59:36;;;;;;;;;;;;;;;;;;5093983;28;19908;-75
2023/10/07 03:04:43;;;;;;;;;;;;;;;;;;5093825;28;20271;-74
2023/10/07 03:07:18;;;;;;;;;;;;;;;;;;5076662;28;19935;-74
2023/10/07 03:09:52;;;;;;;;;;;;;;;;;;5093532;28;19916;-74
2023/10/07 03:12:27;;;;;;;;;;;;;;;;;;5075716;28;20425;-74
2023/10/07 03:14:55;;;;;;;;;;;;;;;;;;5093817;28;20391;-75
2023/10/07 03:17:21;;;;;;;;;;;;;;;;;;5093461;28;19940;-75
2023/10/07 03:19:56;;;;;;;;;;;;;;;;;;5093663;28;19909;-75
2023/10/07 03:22:31;;;;;;;;;;;;;;;;;;5075503;28;19912;-75
2023/10/07 03:25:00;;;;;;;;;;;;;;;;;;5093207;28;19908;-75
2023/10/07 03:27:26;;;;;;;;;;;;;;;;;;5094197;28;19946;-75
2023/10/07 03:32:54;;;;;;;;;;;;;;;;;;5093607;28;19969;-75
2023/10/07 03:35:35;;;;;;;;;;;;;;;;;;5075395;28;19908;-75
2023/10/07 03:38:02;;;;;;;;;;;;;;;;;;5096991;28;19908;-75
2023/10/07 03:40:35;;;;;;;;;;;;;;;;;;5097324;28;20280;-75
2023/10/07 03:43:01;;;;;;;;;;;;;;;;;;5097590;28;19908;-75
2023/10/07 03:45:29;;;;;;;;;;;;;;;;;;5096892;28;19999;-75
2023/10/07 03:47:54;;;;;;;;;;;;;;;;;;5097283;28;20302;-75
2023/10/07 03:50:29;;;;;;;;;;;;;;;;;;5078683;28;19927;-75
2023/10/07 03:52:55;;;;;;;;;;;;;;;;;;5096711;28;19912;-75
2023/10/07 03:55:22;;;;;;;;;;;;;;;;;;5096986;28;19914;-75
2023/10/07 03:57:49;;;;;;;;;;;;;;;;;;5096624;28;20352;-75
2023/10/07 04:00:15;;;;;;;;;;;;;;;;;;5096892;28;19947;-75
2023/10/07 04:02:44;;;;;;;;;;;;;;;;;;5078730;28;20360;-75
2023/10/07 04:05:12;;;;;;;;;;;;;;;;;;5096466;28;19995;-75
2023/10/07 04:07:38;;;;;;;;;;;;;;;;;;5096776;28;19908;-75
2023/10/07 04:10:21;;;;;;;;;;;;;;;;;;5096641;28;19939;-75
2023/10/07 04:12:47;;;;;;;;;;;;;;;;;;5078179;28;20298;-75
2023/10/07 04:15:16;;;;;;;;;;;;;;;;;;5096636;28;19908;-75
2023/10/07 04:17:42;;;;;;;;;;;;;;;;;;5096645;28;19935;-75
2023/10/07 04:23:00;;;;;;;;;;;;;;;;;;5065090;28;19908;-75
2023/10/07 04:25:27;;;;;;;;;;;;;;;;;;5078295;28;19961;-75
2023/10/07 04:28:13;;;;;;;;;;;;;;;;;;5053696;28;19979;-75
2023/10/07 04:30:39;;;;;;;;;;;;;;;;;;5054278;28;19916;-75
2023/10/07 04:33:10;;;;;;;;;;;;;;;;;;5053671;28;20320;-75
2023/10/07 04:35:37;;;;;;;;;;;;;;;;;;5053972;28;19944;-75
2023/10/07 04:38:10;;;;;;;;;;;;;;;;;;5053914;28;20466;-75
2023/10/07 04:41:30;;;;;;;;;;;;;;;;;;5053978;28;19948;-75
2023/10/07 04:46:24;;;;;;;;;;;;;;;;;;5054081;28;20027;-75
2023/10/07 04:48:56;;;;;;;;;;;;;;;;;;5053190;28;19920;-75
2023/10/07 04:54:06;;;;;;;;;;;;;;;;;;5053363;28;19916;-75
2023/10/07 04:56:33;;;;;;;;;;;;;;;;;;5053685;28;20025;-76
2023/10/07 04:59:10;;;;;;;;;;;;;;;;;;5071068;28;19961;-75
2023/10/07 05:01:41;;;;;;;;;;;;;;;;;;5095594;28;19908;-75
2023/10/07 05:04:10;;;;;;;;;;;;;;;;;;5096329;28;19947;-75
2023/10/07 05:06:37;;;;;;;;;;;;;;;;;;5095685;28;19915;-76
2023/10/07 05:09:18;;;;;;;;;;;;;;;;;;5095185;28;19935;-75
2023/10/07 05:11:45;;;;;;;;;;;;;;;;;;5095692;28;20364;-75
2023/10/07 05:14:11;;;;;;;;;;;;;;;;;;5095560;28;20002;-75
2023/10/07 05:16:37;;;;;;;;;;;;;;;;;;5095062;28;20335;-75
2023/10/07 05:19:04;;;;;;;;;;;;;;;;;;5095520;28;20330;-75
2023/10/07 05:21:32;;;;;;;;;;;;;;;;;;5095410;28;20383;-75
2023/10/07 05:24:02;;;;;;;;;;;;;;;;;;5095056;28;19908;-75
2023/10/07 05:26:30;;;;;;;;;;;;;;;;;;5095345;28;19908;-75
2023/10/07 05:29:02;;;;;;;;;;;;;;;;;;5095571;28;19916;-75
2023/10/07 05:31:30;;;;;;;;;;;;;;;;;;5076733;28;19908;-76
2023/10/07 05:33:58;;;;;;;;;;;;;;;;;;5095198;28;19916;-75
2023/10/07 05:36:29;;;;;;;;;;;;;;;;;;5094839;28;20372;-76
2023/10/07 05:38:55;;;;;;;;;;;;;;;;;;5095312;28;19998;-75
2023/10/07 05:41:25;;;;;;;;;;;;;;;;;;5095056;28;19908;-75
2023/10/07 05:43:51;;;;;;;;;;;;;;;;;;5094689;28;20317;-76
2023/10/07 05:46:18;;;;;;;;;;;;;;;;;;5095059;28;19915;-75
2023/10/07 05:48:45;;;;;;;;;;;;;;;;;;5094702;28;19915;-75
2023/10/07 05:51:11;;;;;;;;;;;;;;;;;;5094515;28;19916;-76
2023/10/07 05:53:37;;;;;;;;;;;;;;;;;;5076613;28;20003;-75
2023/10/07 05:56:05;;;;;;;;;;;;;;;;;;5094744;28;19912;-75
2023/10/07 05:58:32;;;;;;;;;;;;;;;;;;5093791;28;19953;-75
2023/10/07 06:00:58;;;;;;;;;;;;;;;;;;5094769;28;19909;-76
2023/10/07 06:03:25;;;;;;;;;;;;;;;;;;5076412;28;20318;-75
2023/10/07 06:05:52;;;;;;;;;;;;;;;;;;5094170;28;20383;-75
2023/10/07 06:08:18;;;;;;;;;;;;;;;;;;5094505;28;19915;-75
2023/10/07 06:10:44;;;;;;;;;;;;;;;;;;5094312;28;20288;-76
2023/10/07 06:13:10;;;;;;;;;;;;;;;;;;5094223;28;20253;-75
2023/10/07 06:15:37;;;;;;;;;;;;;;;;;;5094338;28;19908;-76
2023/10/07 06:18:04;;;;;;;;;;;;;;;;;;5094333;28;19913;-76
2023/10/07 06:20:37;;;;;;;;;;;;;;;;;;5094022;28;20003;-77
2023/10/07 06:23:13;;;;;;;;;;;;;;;;;;5094703;28;19974;-76
2023/10/07 06:25:41;;;;;;;;;;;;;;;;;;5093845;28;19908;-75
2023/10/07 06:28:10;;;;;;;;;;;;;;;;;;5076098;28;19915;-75
2023/10/07 06:30:38;;;;;;;;;;;;;;;;;;5094091;28;19920;-75
2023/10/07 06:33:04;;;;;;;;;;;;;;;;;;5093731;28;19909;-75
2023/10/07 06:35:32;;;;;;;;;;;;;;;;;;5094063;28;19915;-75
2023/10/07 06:37:58;;;;;;;;;;;;;;;;;;5094249;28;20276;-75
2023/10/07 06:40:26;;;;;;;;;;;;;;;;;;5093677;28;19908;-76
2023/10/07 06:42:52;;;;;;;;;;;;;;;;;;5094276;28;20301;-76
2023/10/07 06:45:18;;;;;;;;;;;;;;;;;;5093839;28;19908;-75
2023/10/07 06:47:46;;;;;;;;;;;;;;;;;;5093586;28;19908;-75
2023/10/07 06:50:17;;;;;;;;;;;;;;;;;;5093683;28;19921;-75
2023/10/07 06:52:44;;;;;;;;;;;;;;;;;;5094229;28;20264;-75
2023/10/07 06:55:11;;;;;;;;;;;;;;;;;;5093780;28;20007;-76
2023/10/07 06:57:37;;;;;;;;;;;;;;;;;;5093860;28;20038;-76
2023/10/07 07:00:11;;;;;;;;;;;;;;;;;;5093924;28;19916;-75
2023/10/07 07:02:40;;;;;;;;;;;;;;;;;;5093521;28;19945;-78
2023/10/07 07:05:14;;;;;;;;;;;;;;;;;;5093785;28;19909;-76
2023/10/07 07:07:41;;;;;;;;;;;;;;;;;;5093533;28;19969;-75
2023/10/07 07:10:07;;;;;;;;;;;;;;;;;;5093747;28;20326;-77
2023/10/07 07:12:33;;;;;;;;;;;;;;;;;;5097307;28;19908;-76
2023/10/07 07:15:04;;;;;;;;;;;;;;;;;;5097392;28;19954;-77
2023/10/07 07:17:35;;;;;;;;;;;;;;;;;;5097829;28;19915;-75
2023/10/07 07:22:36;;;;;;;;;;;;;;;;;;5097736;28;20374;-75
2023/10/07 07:26:38;;;;;;;;;;;;;;;;;;5071326;28;19923;-76
2023/10/07 07:29:05;;;;;;;;;;;;;;;;;;5069482;28;20007;-76
2023/10/07 07:31:34;;;;;;;;;;;;;;;;;;5071189;28;19916;-76
2023/10/07 07:37:50;;;;;;;;;;;;;;;;;;5173467;27;20348;-74
2023/10/07 07:40:35;;;;;;;;;;;;;;;;;;5173742;27;19954;-75
2023/10/07 07:43:02;;;;;;;;;;;;;;;;;;5173691;27;19914;-75
2023/10/07 07:45:28;;;;;;;;;;;;;;;;;;5173640;27;20367;-76
2023/10/07 07:50:18;;;;;;;;;;;;;;;;;;5091631;27;19923;-76
2023/10/07 07:52:49;;;;;;;;;;;;;;;;;;5091542;28;20360;-75
2023/10/07 07:55:15;;;;;;;;;;;;;;;;;;5090098;28;19908;-76
2023/10/07 08:00:40;;;;;;;;;;;;;;;;;;5111698;27;19916;-74
2023/10/07 08:03:07;;;;;;;;;;;;;;;;;;5111676;28;19948;-74
2023/10/07 08:05:34;;;;;;;;;;;;;;;;;;5111468;28;19984;-74
2023/10/07 08:08:09;;;;;;;;;;;;;;;;;;5111813;28;19914;-74
2023/10/07 08:13:45;;;;;;;;;;;;;;;;;;5091674;27;20391;-74
2023/10/07 08:16:17;;;;;;;;;;;;;;;;;;5091363;28;20006;-76
2023/10/07 08:20:44;;;;;;;;;;;;;;;;;;5091958;27;19913;-75
2023/10/07 08:23:21;;;;;;;;;;;;;;;;;;5091597;28;19912;-75
2023/10/07 08:25:47;;;;;;;;;;;;;;;;;;5091084;28;19935;-74
2023/10/07 08:28:22;;;;;;;;;;;;;;;;;;5091279;28;19912;-75
2023/10/07 08:30:48;;;;;;;;;;;;;;;;;;5091169;28;19916;-75
2023/10/07 08:33:15;;;;;;;;;;;;;;;;;;5089665;28;20288;-74
2023/10/07 08:35:43;;;;;;;;;;;;;;;;;;5091012;28;20376;-74
2023/10/07 08:38:19;;;;;;;;;;;;;;;;;;5091239;28;20369;-74
2023/10/07 08:40:49;;;;;;;;;;;;;;;;;;5090729;28;19915;-75
2023/10/07 08:43:19;;;;;;;;;;;;;;;;;;5091291;28;19999;-75
2023/10/07 08:45:45;;;;;;;;;;;;;;;;;;5090941;28;19915;-76
2023/10/07 08:49:46;;;;;;;;;;;;;;;;;;5092167;27;19912;-75
2023/10/07 08:52:12;;;;;;;;;;;;;;;;;;5091716;28;19927;-74
2023/10/07 08:54:38;;;;;;;;;;;;;;;;;;5089637;28;20364;-74
2023/10/07 08:57:15;;;;;;;;;;;;;;;;;;5091384;28;20021;-74
2023/10/07 09:01:26;;;;;;;;;;;;;;;;;;5091361;28;20299;-75
2023/10/07 09:03:56;;;;;;;;;;;;;;;;;;5091409;28;19919;-77
2023/10/07 09:06:27;;;;;;;;;;;;;;;;;;5091526;28;19908;-76
2023/10/07 09:08:52;;;;;;;;;;;;;;;;;;5090832;28;20368;-75
2023/10/07 09:11:41;;;;;;;;;;;;;;;;;;5091978;27;19916;-75
2023/10/07 09:14:07;;;;;;;;;;;;;;;;;;5091278;28;20003;-75
2023/10/07 09:17:23;;;;;;;;;;;;;;;;;;5091619;27;19917;-75
2023/10/07 09:19:52;;;;;;;;;;;;;;;;;;5091333;28;19923;-76
2023/10/07 09:22:24;;;;;;;;;;;;;;;;;;5090937;28;19920;-76
2023/10/07 09:25:31;;;;;;;;;;;;;;;;;;5112627;27;20294;-75
2023/10/07 09:28:46;;;;;;;;;;;;;;;;;;5051319;28;19917;-75
2023/10/07 09:31:12;;;;;;;;;;;;;;;;;;5051527;28;19913;-75
2023/10/07 09:33:41;;;;;;;;;;;;;;;;;;5051082;28;19916;-75
2023/10/07 09:41:38;;;;;;;;;;;;;;;;;;5049772;28;19913;-75
2023/10/07 09:44:10;;;;;;;;;;;;;;;;;;5050591;28;19915;-75
2023/10/07 09:46:40;;;;;;;;;;;;;;;;;;5051095;28;19917;-75
2023/10/07 09:49:06;;;;;;;;;;;;;;;;;;5050832;28;19909;-75
2023/10/07 09:51:35;;;;;;;;;;;;;;;;;;5050406;28;20250;-75
2023/10/07 09:54:02;;;;;;;;;;;;;;;;;;5049450;28;19909;-75
2023/10/07 09:56:29;;;;;;;;;;;;;;;;;;5050540;28;19909;-75
2023/10/07 09:58:59;;;;;;;;;;;;;;;;;;5050629;28;20258;-75
2023/10/07 10:01:36;;;;;;;;;;;;;;;;;;5050667;28;20413;-75
2023/10/07 10:04:05;;;;;;;;;;;;;;;;;;5050368;28;19909;-75
2023/10/07 10:06:33;;;;;;;;;;;;;;;;;;5050398;28;19932;-75
2023/10/07 10:08:59;;;;;;;;;;;;;;;;;;5050464;28;19944;-75
2023/10/07 10:11:43;;;;;;;;;;;;;;;;;;5049990;28;19910;-75
2023/10/07 10:16:44;;;;;;;;;;;;;;;;;;5050703;28;19963;-76
2023/10/07 10:19:22;;;;;;;;;;;;;;;;;;5049968;28;19916;-76
2023/10/07 10:21:48;;;;;;;;;;;;;;;;;;5050263;28;19909;-76
2023/10/07 10:24:15;;;;;;;;;;;;;;;;;;5050113;28;19909;-76
2023/10/07 10:26:41;;;;;;;;;;;;;;;;;;5053298;28;19924;-76
2023/10/07 10:29:15;;;;;;;;;;;;;;;;;;5070007;28;19962;-76
2023/10/07 10:33:08;;;;;;;;;;;;;;;;;;5091315;28;19923;-75
2023/10/07 10:35:35;;;;;;;;;;;;;;;;;;5090259;28;20360;-76
2023/10/07 10:38:09;;;;;;;;;;;;;;;;;;5091539;28;19908;-76
2023/10/07 10:40:35;;;;;;;;;;;;;;;;;;5090850;28;19916;-76
2023/10/07 10:43:01;;;;;;;;;;;;;;;;;;5091138;28;19908;-76
2023/10/07 10:45:29;;;;;;;;;;;;;;;;;;5091148;28;19994;-75
2023/10/07 10:47:56;;;;;;;;;;;;;;;;;;5090980;28;19908;-75
2023/10/07 10:50:23;;;;;;;;;;;;;;;;;;5089747;28;19954;-75
2023/10/07 10:52:49;;;;;;;;;;;;;;;;;;5090831;28;19920;-76
2023/10/07 10:55:15;;;;;;;;;;;;;;;;;;5090952;28;19916;-76
2023/10/07 10:57:41;;;;;;;;;;;;;;;;;;5090868;28;20065;-79
2023/10/07 11:00:18;;;;;;;;;;;;;;;;;;5090480;28;19912;-76
2023/10/07 11:02:45;;;;;;;;;;;;;;;;;;5090832;28;19909;-76
2023/10/07 11:05:12;;;;;;;;;;;;;;;;;;5090819;28;20312;-76
2023/10/07 11:07:39;;;;;;;;;;;;;;;;;;5090369;28;20258;-76
2023/10/07 11:10:06;;;;;;;;;;;;;;;;;;5090722;28;19908;-76
2023/10/07 11:12:32;;;;;;;;;;;;;;;;;;5090591;28;19916;-75
2023/10/07 11:14:59;;;;;;;;;;;;;;;;;;5090364;28;19948;-75
2023/10/07 11:17:24;;;;;;;;;;;;;;;;;;5090688;28;19912;-75
2023/10/07 11:19:53;;;;;;;;;;;;;;;;;;5090579;28;19912;-76
2023/10/07 11:22:21;;;;;;;;;;;;;;;;;;5090071;28;20003;-75
2023/10/07 11:24:49;;;;;;;;;;;;;;;;;;5090443;28;20007;-75
2023/10/07 11:27:15;;;;;;;;;;;;;;;;;;5090355;28;19915;-75
2023/10/07 11:29:42;;;;;;;;;;;;;;;;;;5088633;28;20007;-75
2023/10/07 11:32:08;;;;;;;;;;;;;;;;;;5103031;28;19920;-76
2023/10/07 11:34:36;;;;;;;;;;;;;;;;;;5092270;28;20398;-75
2023/10/07 11:37:02;;;;;;;;;;;;;;;;;;5110197;28;20287;-76
2023/10/07 11:39:28;;;;;;;;;;;;;;;;;;5110792;28;19915;-76
2023/10/07 11:41:55;;;;;;;;;;;;;;;;;;5110407;28;19915;-76
2023/10/07 11:44:20;;;;;;;;;;;;;;;;;;5096666;28;19991;-75
2023/10/07 11:46:46;;;;;;;;;;;;;;;;;;5078629;28;19947;-76
2023/10/07 11:49:15;;;;;;;;;;;;;;;;;;5096353;28;19953;-76
2023/10/07 11:51:41;;;;;;;;;;;;;;;;;;5096631;28;20002;-76
2023/10/07 11:54:07;;;;;;;;;;;;;;;;;;5096796;28;19958;-76
2023/10/07 11:56:33;;;;;;;;;;;;;;;;;;5096304;28;20383;-75
2023/10/07 11:58:59;;;;;;;;;;;;;;;;;;5096655;28;19954;-76
2023/10/07 12:01:25;;;;;;;;;;;;;;;;;;5078379;28;20403;-77
2023/10/07 12:03:51;;;;;;;;;;;;;;;;;;5096120;28;20007;-76
2023/10/07 12:06:17;;;;;;;;;;;;;;;;;;5096634;28;19912;-76
2023/10/07 12:08:43;;;;;;;;;;;;;;;;;;5096365;28;19919;-77
2023/10/07 12:11:09;;;;;;;;;;;;;;;;;;5095839;28;19912;-75
2023/10/07 12:13:35;;;;;;;;;;;;;;;;;;5096249;28;19964;-75
2023/10/07 12:16:01;;;;;;;;;;;;;;;;;;5096143;28;19916;-76
2023/10/07 12:18:27;;;;;;;;;;;;;;;;;;5095780;28;19908;-77
2023/10/07 12:20:55;;;;;;;;;;;;;;;;;;5096098;28;19915;-77
2023/10/07 12:23:21;;;;;;;;;;;;;;;;;;5096213;28;19908;-76
2023/10/07 12:25:47;;;;;;;;;;;;;;;;;;5077512;28;19934;-76
2023/10/07 12:28:13;;;;;;;;;;;;;;;;;;5095994;28;19912;-76
2023/10/07 12:30:39;;;;;;;;;;;;;;;;;;5077602;28;20387;-75
2023/10/07 12:33:05;;;;;;;;;;;;;;;;;;5095799;28;19908;-76
2023/10/07 12:35:34;;;;;;;;;;;;;;;;;;5095921;28;19908;-76
2023/10/07 12:38:00;;;;;;;;;;;;;;;;;;5095839;28;19908;-76
2023/10/07 12:40:28;;;;;;;;;;;;;;;;;;5095346;28;19908;-76
2023/10/07 12:42:54;;;;;;;;;;;;;;;;;;5095754;28;19915;-76
2023/10/07 12:45:20;;;;;;;;;;;;;;;;;;5095266;28;20252;-76
2023/10/07 12:47:51;;;;;;;;;;;;;;;;;;5095868;28;20329;-76
2023/10/07 12:50:29;;;;;;;;;;;;;;;;;;5095610;28;19914;-76
2023/10/07 12:52:55;;;;;;;;;;;;;;;;;;5095320;28;19916;-76
2023/10/07 12:55:21;;;;;;;;;;;;;;;;;;5094462;28;19952;-76
2023/10/07 12:57:49;;;;;;;;;;;;;;;;;;5095434;28;19908;-76
2023/10/07 13:00:31;;;;;;;;;;;;;;;;;;5076814;28;20283;-76
2023/10/07 13:02:58;;;;;;;;;;;;;;;;;;5095262;28;20360;-76
2023/10/07 13:05:24;;;;;;;;;;;;;;;;;;5095526;28;20360;-76
2023/10/07 13:07:50;;;;;;;;;;;;;;;;;;5076602;28;19951;-76
2023/10/07 13:10:19;;;;;;;;;;;;;;;;;;5077293;28;19962;-76
2023/10/07 13:12:46;;;;;;;;;;;;;;;;;;5094853;28;19919;-76
2023/10/07 13:15:15;;;;;;;;;;;;;;;;;;5094617;28;19908;-76
2023/10/07 13:17:45;;;;;;;;;;;;;;;;;;5095050;28;19987;-76
2023/10/07 13:20:12;;;;;;;;;;;;;;;;;;5095277;28;19977;-76
2023/10/07 13:22:38;;;;;;;;;;;;;;;;;;5094538;28;20376;-76
2023/10/07 13:25:04;;;;;;;;;;;;;;;;;;5094820;28;20007;-76
2023/10/07 13:27:30;;;;;;;;;;;;;;;;;;5076262;28;19909;-76
2023/10/07 13:29:56;;;;;;;;;;;;;;;;;;5095032;28;19908;-76
2023/10/07 13:32:23;;;;;;;;;;;;;;;;;;5094514;28;19926;-76
2023/10/07 13:34:50;;;;;;;;;;;;;;;;;;5094368;28;20306;-76
2023/10/07 13:37:17;;;;;;;;;;;;;;;;;;5094781;28;19908;-77
2023/10/07 13:39:43;;;;;;;;;;;;;;;;;;5094778;28;20008;-76
2023/10/07 13:42:09;;;;;;;;;;;;;;;;;;5094259;28;19965;-76
2023/10/07 13:44:35;;;;;;;;;;;;;;;;;;5094835;28;19909;-76
2023/10/07 13:47:01;;;;;;;;;;;;;;;;;;5094566;28;19949;-76
2023/10/07 13:49:31;;;;;;;;;;;;;;;;;;5093997;28;19947;-76
2023/10/07 13:52:05;;;;;;;;;;;;;;;;;;5094325;28;19916;-76
2023/10/07 13:57:02;;;;;;;;;;;;;;;;;;5094178;28;19993;-76
2023/10/07 13:59:28;;;;;;;;;;;;;;;;;;5094621;28;19951;-76
2023/10/07 14:01:55;;;;;;;;;;;;;;;;;;5094212;28;20379;-76
2023/10/07 14:04:25;;;;;;;;;;;;;;;;;;5093888;28;19908;-76
2023/10/07 14:06:54;;;;;;;;;;;;;;;;;;5093944;28;20395;-76
2023/10/07 14:09:24;;;;;;;;;;;;;;;;;;5094360;28;19908;-76
2023/10/07 14:11:50;;;;;;;;;;;;;;;;;;5093766;28;19919;-76
2023/10/07 14:14:16;;;;;;;;;;;;;;;;;;5094075;28;19960;-76
2023/10/07 14:16:42;;;;;;;;;;;;;;;;;;5093815;28;19915;-76
2023/10/07 14:19:08;;;;;;;;;;;;;;;;;;5076574;28;19939;-76
2023/10/07 14:21:35;;;;;;;;;;;;;;;;;;5093986;28;19915;-76
2023/10/07 14:24:03;;;;;;;;;;;;;;;;;;5093623;28;20469;-76
2023/10/07 14:26:32;;;;;;;;;;;;;;;;;;5094325;28;20356;-76
2023/10/07 14:29:01;;;;;;;;;;;;;;;;;;5093959;28;19912;-76
2023/10/07 14:31:27;;;;;;;;;;;;;;;;;;5093265;28;19963;-76
2023/10/07 14:33:54;;;;;;;;;;;;;;;;;;5094104;28;20395;-76
2023/10/07 14:36:21;;;;;;;;;;;;;;;;;;5094322;28;19908;-76
2023/10/07 14:38:48;;;;;;;;;;;;;;;;;;5093479;28;19922;-76
2023/10/07 14:41:14;;;;;;;;;;;;;;;;;;5093858;28;19915;-76
2023/10/07 14:58:04;;;;;;;;;;;;;;;;;;5091463;28;20292;-71
2023/10/07 15:00:30;;;;;;;;;;;;;;;;;;5090687;28;20130;-71
2023/10/07 15:02:56;;;;;;;;;;;;;;;;;;5091046;28;19940;-71
2023/10/07 15:05:22;;;;;;;;;;;;;;;;;;5090984;28;19915;-72
2023/10/07 15:07:48;;;;;;;;;;;;;;;;;;5090583;28;19908;-72
2023/10/07 15:10:14;;;;;;;;;;;;;;;;;;5091060;28;19919;-72
2023/10/07 15:12:40;;;;;;;;;;;;;;;;;;5091039;28;19946;-72
2023/10/07 15:15:06;;;;;;;;;;;;;;;;;;5090464;28;19912;-72
2023/10/07 15:17:32;;;;;;;;;;;;;;;;;;5089538;28;19961;-72
2023/10/07 15:19:59;;;;;;;;;;;;;;;;;;5090756;28;19963;-73
2023/10/07 15:22:25;;;;;;;;;;;;;;;;;;5090255;28;19916;-72
2023/10/07 15:24:51;;;;;;;;;;;;;;;;;;5090663;28;19912;-72
2023/10/07 15:27:17;;;;;;;;;;;;;;;;;;5090520;28;19917;-71
2023/10/07 15:29:43;;;;;;;;;;;;;;;;;;5088943;28;20499;-72
2023/10/07 15:32:09;;;;;;;;;;;;;;;;;;5089215;28;20362;-72
2023/10/07 15:34:35;;;;;;;;;;;;;;;;;;5090418;28;19954;-72
2023/10/07 15:37:01;;;;;;;;;;;;;;;;;;5090027;28;19908;-72
2023/10/07 15:39:28;;;;;;;;;;;;;;;;;;5090555;28;19919;-72
2023/10/07 15:41:55;;;;;;;;;;;;;;;;;;5088932;28;20357;-72
2023/10/07 15:44:21;;;;;;;;;;;;;;;;;;5089948;28;19908;-72
2023/10/07 15:46:47;;;;;;;;;;;;;;;;;;5088813;28;19924;-71
2023/10/07 15:49:13;;;;;;;;;;;;;;;;;;5090169;28;20365;-72
2023/10/07 15:51:39;;;;;;;;;;;;;;;;;;5089814;28;19910;-72
2023/10/07 15:54:07;;;;;;;;;;;;;;;;;;5088813;28;19923;-71
2023/10/07 15:56:34;;;;;;;;;;;;;;;;;;5089523;28;20381;-71
2023/10/07 15:59:00;;;;;;;;;;;;;;;;;;5075262;28;19909;-71
2023/10/07 16:01:26;;;;;;;;;;;;;;;;;;5076480;28;20011;-71
2023/10/07 16:03:52;;;;;;;;;;;;;;;;;;5076065;28;19939;-72
2023/10/07 16:06:18;;;;;;;;;;;;;;;;;;5076324;28;20012;-72
2023/10/07 16:08:44;;;;;;;;;;;;;;;;;;5074990;28;19912;-71
2023/10/07 16:11:10;;;;;;;;;;;;;;;;;;5075943;28;19908;-72
2023/10/07 16:13:36;;;;;;;;;;;;;;;;;;5076222;28;20003;-71
2023/10/07 16:16:05;;;;;;;;;;;;;;;;;;5074998;28;19970;-71
2023/10/07 16:18:31;;;;;;;;;;;;;;;;;;5075791;28;19908;-72
2023/10/07 16:20:57;;;;;;;;;;;;;;;;;;5076124;28;19962;-70
2023/10/07 16:23:23;;;;;;;;;;;;;;;;;;5076042;28;19908;-71
2023/10/07 16:25:49;;;;;;;;;;;;;;;;;;5075560;28;19939;-71
2023/10/07 16:28:16;;;;;;;;;;;;;;;;;;5076267;28;19908;-70
2023/10/07 16:30:42;;;;;;;;;;;;;;;;;;5075925;28;19915;-71
2023/10/07 16:35:27;;;;;;;;;;;;;;;;;;5092280;27;19916;-71
2023/10/07 16:39:06;;;;;;;;;;;;;;;;;;5091684;28;19923;-71
2023/10/07 16:41:32;;;;;;;;;;;;;;;;;;5090400;28;19917;-71
2023/10/07 16:43:58;;;;;;;;;;;;;;;;;;5091317;28;20359;-71
2023/10/07 16:46:26;;;;;;;;;;;;;;;;;;5089868;28;19917;-72
2023/10/07 16:48:52;;;;;;;;;;;;;;;;;;5091248;28;19959;-71
2023/10/07 16:51:19;;;;;;;;;;;;;;;;;;5091209;28;19908;-71
2023/10/07 16:53:45;;;;;;;;;;;;;;;;;;5090882;28;19939;-71
2023/10/07 16:56:14;;;;;;;;;;;;;;;;;;5091407;28;19943;-71
2023/10/07 16:58:53;;;;;;;;;;;;;;;;;;5111888;27;20298;-72
2023/10/07 17:01:19;;;;;;;;;;;;;;;;;;5111410;28;19912;-72
2023/10/07 17:03:45;;;;;;;;;;;;;;;;;;5111678;28;20007;-71
2023/10/07 17:06:11;;;;;;;;;;;;;;;;;;5111650;28;19962;-71
2023/10/07 17:08:37;;;;;;;;;;;;;;;;;;5111191;28;19908;-71
2023/10/07 17:11:03;;;;;;;;;;;;;;;;;;5111499;28;19919;-71
2023/10/07 17:13:29;;;;;;;;;;;;;;;;;;5111500;28;19936;-71
2023/10/07 17:15:55;;;;;;;;;;;;;;;;;;5110107;28;19915;-72
2023/10/07 17:21:28;;;;;;;;;;;;;;;;;;5111878;27;20290;-71
2023/10/07 17:23:54;;;;;;;;;;;;;;;;;;5111734;28;20283;-70
2023/10/07 17:26:20;;;;;;;;;;;;;;;;;;5111836;28;19930;-70
2023/10/07 17:28:46;;;;;;;;;;;;;;;;;;5111367;28;19915;-70
2023/10/07 17:31:12;;;;;;;;;;;;;;;;;;5111496;28;19908;-70
2023/10/07 17:33:38;;;;;;;;;;;;;;;;;;5111498;28;19912;-69
2023/10/07 17:36:48;;;;;;;;;;;;;;;;;;5111536;27;19922;-71
2023/10/07 17:40:55;;;;;;;;;;;;;;;;;;5111840;27;19916;-70
2023/10/07 17:43:21;;;;;;;;;;;;;;;;;;5110100;28;20348;-71
2023/10/07 17:45:47;;;;;;;;;;;;;;;;;;5111542;28;19953;-70
2023/10/07 17:48:13;;;;;;;;;;;;;;;;;;5110417;28;19961;-71
2023/10/07 17:50:40;;;;;;;;;;;;;;;;;;5111216;28;19908;-70
2023/10/07 17:53:28;;;;;;;;;;;;;;;;;;5111768;27;19916;-70
2023/10/07 17:55:54;;;;;;;;;;;;;;;;;;5111691;28;20010;-70
2023/10/07 17:58:20;;;;;;;;;;;;;;;;;;5111287;28;19908;-70
2023/10/07 18:00:46;;;;;;;;;;;;;;;;;;5111709;28;19915;-70
2023/10/07 18:03:12;;;;;;;;;;;;;;;;;;5111162;28;19962;-70
2023/10/07 18:05:39;;;;;;;;;;;;;;;;;;5110229;28;19912;-70
2023/10/07 18:08:06;;;;;;;;;;;;;;;;;;5111500;28;19960;-70
2023/10/07 18:10:32;;;;;;;;;;;;;;;;;;5111027;28;19909;-71
2023/10/07 18:13:00;;;;;;;;;;;;;;;;;;5111347;28;19927;-70
2023/10/07 18:15:27;;;;;;;;;;;;;;;;;;5111347;28;19915;-70